Time;durP1;ratioP1;P1;durP2;ratioP2;P2;SDS_P1;SDS_P2;PMS_P1;PMS_P2;Temp;Humidity;BMP_temperature;BMP_pressure;BME280_temperature;BME280_humidity;BME280_pressure;Samples;Min_cycle;Max_cycle;Signal;HPM_P1;HPM_P2
2023/01/16 00:01:25;;;;;;;5.28;3.78;;;1.50;99.90;;;;;;5032298;28;20484;-58
2023/01/16 00:03:51;;;;;;;3.35;3.05;;;1.50;99.90;;;;;;5032103;28;20033;-58
2023/01/16 00:06:16;;;;;;;3.63;3.28;;;1.60;99.90;;;;;;5032329;28;20021;-57
2023/01/16 00:08:43;;;;;;;3.58;3.17;;;1.60;99.90;;;;;;5032360;28;20031;-56
2023/01/16 00:11:09;;;;;;;4.80;3.20;;;1.60;99.90;;;;;;5032229;28;20033;-57
2023/01/16 00:13:35;;;;;;;3.20;2.90;;;1.60;99.90;;;;;;5031950;28;20025;-56
2023/01/16 00:16:01;;;;;;;5.28;2.83;;;1.60;99.90;;;;;;5032081;28;20408;-58
2023/01/16 00:18:26;;;;;;;3.10;2.90;;;1.70;99.90;;;;;;5032077;28;20392;-53
2023/01/16 00:20:52;;;;;;;3.08;2.88;;;1.70;99.90;;;;;;5031818;28;20424;-54
2023/01/16 00:23:18;;;;;;;3.10;2.80;;;1.70;99.90;;;;;;5031851;28;20437;-57
2023/01/16 00:25:44;;;;;;;3.33;3.03;;;1.60;99.90;;;;;;5031787;28;20057;-53
2023/01/16 00:28:10;;;;;;;5.45;3.03;;;1.60;99.90;;;;;;5030520;28;20029;-59
2023/01/16 00:30:36;;;;;;;2.92;2.63;;;1.50;99.90;;;;;;5031752;28;20079;-57
2023/01/16 00:33:03;;;;;;;6.80;3.63;;;1.50;99.90;;;;;;5031802;28;20025;-57
2023/01/16 00:35:29;;;;;;;2.95;2.55;;;1.50;99.90;;;;;;5031673;28;20034;-55
2023/01/16 00:37:54;;;;;;;2.80;2.65;;;1.50;99.90;;;;;;5031474;28;20032;-54
2023/01/16 00:40:20;;;;;;;3.25;2.60;;;1.50;99.90;;;;;;5031841;28;20030;-55
2023/01/16 00:42:46;;;;;;;3.20;2.92;;;1.50;99.90;;;;;;5031536;28;20030;-58
2023/01/16 00:45:11;;;;;;;3.65;2.78;;;1.40;99.90;;;;;;5031561;28;20128;-57
2023/01/16 00:47:37;;;;;;;2.97;2.67;;;1.40;99.90;;;;;;5031441;28;20078;-58
2023/01/16 00:50:03;;;;;;;2.70;2.50;;;1.40;99.90;;;;;;5031610;28;20029;-56
2023/01/16 00:52:29;;;;;;;2.90;2.50;;;1.40;99.90;;;;;;5031489;28;20057;-56
2023/01/16 00:54:55;;;;;;;3.20;2.90;;;1.40;99.90;;;;;;5031586;28;20079;-57
2023/01/16 00:57:20;;;;;;;3.55;3.17;;;1.40;99.90;;;;;;5031559;28;20029;-58
2023/01/16 00:59:46;;;;;;;5.13;3.38;;;1.40;99.90;;;;;;5031404;28;20477;-56
2023/01/16 01:02:12;;;;;;;4.03;2.58;;;1.40;99.90;;;;;;5031521;28;20022;-57
2023/01/16 01:04:37;;;;;;;3.15;2.63;;;1.40;99.90;;;;;;5031267;28;20518;-56
2023/01/16 01:07:03;;;;;;;3.63;2.97;;;1.50;99.90;;;;;;5033615;28;20017;-54
2023/01/16 01:09:29;;;;;;;7.97;2.75;;;1.50;99.90;;;;;;5050822;28;20041;-58
2023/01/16 01:11:56;;;;;;;3.60;2.95;;;1.40;99.90;;;;;;5035194;28;20022;-55
2023/01/16 01:14:22;;;;;;;2.97;2.78;;;1.40;99.90;;;;;;5035353;28;20018;-55
2023/01/16 01:16:48;;;;;;;2.70;2.50;;;1.50;99.90;;;;;;5035220;28;20032;-57
2023/01/16 01:19:14;;;;;;;3.60;2.90;;;1.50;99.90;;;;;;5035333;28;20021;-56
2023/01/16 01:21:40;;;;;;;4.07;2.97;;;1.50;99.90;;;;;;5035088;28;20021;-57
2023/01/16 01:24:05;;;;;;;4.65;3.40;;;1.40;99.90;;;;;;5035287;28;20049;-54
2023/01/16 01:26:31;;;;;;;9.57;3.08;;;1.40;99.90;;;;;;5035111;28;20160;-55
2023/01/16 01:28:57;;;;;;;3.40;3.05;;;1.30;99.90;;;;;;5035202;28;20026;-54
2023/01/16 01:31:22;;;;;;;3.22;2.92;;;1.40;99.90;;;;;;5035168;28;20017;-56
2023/01/16 01:33:48;;;;;;;5.88;3.10;;;1.40;99.90;;;;;;5034880;28;20017;-59
2023/01/16 01:36:14;;;;;;;4.65;3.30;;;1.40;99.90;;;;;;5034983;28;20072;-56
2023/01/16 01:38:39;;;;;;;5.28;4.15;;;1.30;99.90;;;;;;5034878;28;20037;-57
2023/01/16 01:41:05;;;;;;;4.65;4.15;;;1.40;99.90;;;;;;5034942;28;20032;-56
2023/01/16 01:43:46;;;;;;;6.70;5.55;;;1.40;99.90;;;;;;5034885;28;20029;-59
2023/01/16 01:46:30;;;;;;;4.30;3.90;;;1.40;99.90;;;;;;5034749;28;20578;-57
2023/01/16 01:49:21;;;;;;;4.00;3.58;;;1.40;99.90;;;;;;5034582;28;20393;-57
2023/01/16 01:51:46;;;;;;;3.85;3.55;;;1.40;99.90;;;;;;5034317;28;20176;-55
2023/01/16 01:54:20;;;;;;;3.45;3.15;;;1.40;99.90;;;;;;5034670;28;20096;-58
2023/01/16 01:56:48;;;;;;;;;;;1.40;99.90;;;;;;5034981;28;20017;-56
2023/01/16 01:59:29;;;;;;;4.80;4.30;;;1.40;99.90;;;;;;5034702;28;19905;-57
2023/01/16 02:01:55;;;;;;;7.00;4.20;;;1.40;99.90;;;;;;5034309;28;20083;-58
2023/01/16 02:04:27;;;;;;;3.50;3.20;;;1.40;99.90;;;;;;5034523;28;20030;-57
2023/01/16 02:06:59;;;;;;;5.15;4.00;;;1.30;99.90;;;;;;5034361;28;20053;-54
2023/01/16 02:09:25;;;;;;;4.00;3.60;;;1.30;99.90;;;;;;5034409;28;20439;-55
2023/01/16 02:12:01;;;;;;;5.22;4.05;;;1.30;99.90;;;;;;5034101;28;20021;-58
2023/01/16 02:14:30;;;;;;;4.07;3.67;;;1.20;99.90;;;;;;5034378;28;20032;-57
2023/01/16 02:20:18;;;;;;;4.50;4.07;;;1.20;99.90;;;;;;5034081;28;20036;-56
2023/01/16 02:22:58;;;;;;;4.20;3.78;;;1.20;99.90;;;;;;5034078;28;20369;-57
2023/01/16 02:25:58;;;;;;;4.93;3.83;;;1.20;99.90;;;;;;5034096;28;20029;-58
2023/01/16 02:28:32;;;;;;;7.55;3.60;;;1.20;99.90;;;;;;5033839;28;20388;-57
2023/01/16 02:31:19;;;;;;;3.92;3.63;;;1.10;99.90;;;;;;5034157;28;20406;-54
2023/01/16 02:34:01;;;;;;;5.70;3.95;;;1.10;99.90;;;;;;5033817;28;20029;-57
2023/01/16 02:36:40;;;;;;;4.30;3.90;;;1.10;99.90;;;;;;5032565;28;20465;-59
2023/01/16 02:39:17;;;;;;;10.43;3.70;;;1.10;99.90;;;;;;5033975;28;20026;-58
2023/01/16 02:42:03;;;;;;;4.88;4.07;;;1.10;99.90;;;;;;5033454;28;20115;-58
2023/01/16 02:44:56;;;;;;;4.40;3.80;;;1.10;99.90;;;;;;5026016;28;20042;-53
2023/01/16 02:47:47;;;;;;;4.93;4.22;;;1.10;99.90;;;;;;5033160;28;20084;-55
2023/01/16 02:50:37;;;;;;;7.53;4.30;;;1.10;99.90;;;;;;5032654;28;20104;-53
2023/01/16 02:53:28;;;;;;;3.60;3.30;;;1.10;99.90;;;;;;5032642;28;20112;-55
2023/01/16 02:56:02;;;;;;;4.97;3.28;;;1.10;99.90;;;;;;5032824;28;20018;-55
2023/01/16 02:58:31;;;;;;;5.80;5.07;;;1.10;99.90;;;;;;5033531;28;20623;-57
2023/01/16 03:00:59;;;;;;;3.95;3.13;;;1.10;99.90;;;;;;5033294;28;20067;-57
2023/01/16 03:03:38;;;;;;;4.30;3.08;;;1.00;99.90;;;;;;5033383;28;20574;-57
2023/01/16 03:06:24;;;;;;;5.55;4.15;;;1.00;99.90;;;;;;5033254;28;20032;-56
2023/01/16 03:09:41;;;;;;;4.00;3.63;;;1.00;99.90;;;;;;5032818;28;20140;-56
2023/01/16 03:12:29;;;;;;;3.70;3.40;;;1.10;99.90;;;;;;4991290;28;20172;-56
2023/01/16 03:15:15;;;;;;;5.25;3.55;;;1.10;99.90;;;;;;4990972;28;20532;-56
2023/01/16 03:17:49;;;;;;;4.07;3.67;;;1.10;99.90;;;;;;5026029;28;20129;-57
2023/01/16 03:20:39;;;;;;;3.72;3.42;;;1.10;99.90;;;;;;5033113;28;20026;-57
2023/01/16 03:23:18;;;;;;;5.43;3.40;;;1.00;99.90;;;;;;5033052;28;20048;-56
2023/01/16 03:25:51;;;;;;;4.25;3.22;;;1.00;99.90;;;;;;5032836;28;20026;-55
2023/01/16 03:28:23;;;;;;;4.35;3.92;;;1.00;99.90;;;;;;5032848;28;20036;-53
2023/01/16 03:31:05;;;;;;;5.80;3.30;;;1.00;99.90;;;;;;5032093;28;20025;-57
2023/01/16 03:33:31;;;;;;;5.00;3.88;;;1.00;99.90;;;;;;5032713;28;20009;-58
2023/01/16 03:36:05;;;;;;;3.83;3.40;;;0.90;99.90;;;;;;5032689;28;20044;-56
2023/01/16 03:38:34;;;;;;;8.43;4.13;;;0.90;99.90;;;;;;5032584;28;20028;-58
2023/01/16 03:41:03;;;;;;;4.57;4.13;;;0.90;99.90;;;;;;5032653;28;20376;-56
2023/01/16 03:43:35;;;;;;;5.55;3.95;;;0.80;99.90;;;;;;5032547;28;20017;-58
2023/01/16 03:46:20;;;;;;;5.38;3.63;;;0.80;99.90;;;;;;5032472;28;20045;-59
2023/01/16 03:49:16;;;;;;;7.00;3.33;;;0.80;99.90;;;;;;5032319;28;20029;-56
2023/01/16 03:51:59;;;;;;;8.52;4.47;;;0.80;99.90;;;;;;5032225;28;20208;-56
2023/01/16 03:54:52;;;;;;;3.95;3.28;;;0.80;99.90;;;;;;5032483;28;20131;-57
2023/01/16 03:57:31;;;;;;;8.55;4.05;;;0.80;99.90;;;;;;5032296;28;20067;-56
2023/01/16 04:00:00;;;;;;;4.57;4.18;;;0.80;99.90;;;;;;5032259;28;20696;-58
2023/01/16 04:02:27;;;;;;;6.18;4.90;;;0.70;99.90;;;;;;5032360;28;20053;-57
2023/01/16 04:05:06;;;;;;;9.82;4.93;;;0.80;99.90;;;;;;5032192;28;20342;-56
2023/01/16 04:07:45;;;;;;;5.18;4.32;;;0.80;99.90;;;;;;5032051;28;20025;-57
2023/01/16 04:10:15;;;;;;;6.03;3.78;;;0.80;99.90;;;;;;5032213;28;20029;-56
2023/01/16 04:12:46;;;;;;;5.20;3.92;;;0.80;99.90;;;;;;5031927;28;20039;-54
2023/01/16 04:15:12;;;;;;;6.75;4.20;;;0.80;99.90;;;;;;5031960;28;20021;-56
2023/01/16 04:17:39;;;;;;;3.72;3.42;;;0.80;99.90;;;;;;5031781;28;20043;-54
2023/01/16 04:20:07;;;;;;;5.90;3.83;;;0.80;99.90;;;;;;5032017;28;20033;-58
2023/01/16 04:22:33;;;;;;;3.95;3.65;;;0.80;99.90;;;;;;5031821;28;20049;-56
2023/01/16 04:25:02;;;;;;;9.93;4.25;;;0.70;99.90;;;;;;5031829;28;20420;-55
2023/01/16 04:27:27;;;;;;;3.95;3.70;;;0.70;99.90;;;;;;5031782;28;20057;-56
2023/01/16 04:29:53;;;;;;;10.20;4.07;;;0.70;99.90;;;;;;5031694;28;20029;-59
2023/01/16 04:32:19;;;;;;;6.85;3.95;;;0.70;99.90;;;;;;5031834;28;20060;-54
2023/01/16 04:34:45;;;;;;;4.32;3.92;;;0.60;99.90;;;;;;5031742;28;20044;-57
2023/01/16 04:37:13;;;;;;;15.80;9.65;;;0.60;99.90;;;;;;5031689;28;20021;-56
2023/01/16 04:39:40;;;;;;;12.43;5.85;;;0.60;99.90;;;;;;5031509;28;20025;-52
2023/01/16 04:42:07;;;;;;;8.98;4.40;;;0.70;99.90;;;;;;5030736;28;20021;-59
2023/01/16 04:44:32;;;;;;;5.05;3.80;;;0.70;99.90;;;;;;5031482;28;20516;-58
2023/01/16 04:46:58;;;;;;;3.85;3.47;;;0.70;99.90;;;;;;5031634;28;20147;-58
2023/01/16 04:49:24;;;;;;;7.53;4.07;;;0.60;99.90;;;;;;5031546;28;20036;-55
2023/01/16 04:51:50;;;;;;;7.25;4.13;;;0.60;99.90;;;;;;5031396;28;20034;-58
2023/01/16 04:54:18;;;;;;;4.15;3.75;;;0.60;99.90;;;;;;5031583;28;20022;-51
2023/01/16 04:56:44;;;;;;;5.07;3.60;;;0.60;99.90;;;;;;5031584;28;20060;-56
2023/01/16 04:59:10;;;;;;;3.95;3.63;;;0.60;99.90;;;;;;5031667;28;20040;-59
2023/01/16 05:01:37;;;;;;;6.10;3.28;;;0.60;99.90;;;;;;5031416;28;20100;-57
2023/01/16 05:04:04;;;;;;;4.70;3.47;;;0.70;99.90;;;;;;5031562;28;20582;-57
2023/01/16 05:06:30;;;;;;;5.32;4.32;;;0.70;99.90;;;;;;5031388;28;20021;-55
2023/01/16 05:08:56;;;;;;;4.30;3.20;;;0.60;99.90;;;;;;5031376;28;20036;-51
2023/01/16 05:11:22;;;;;;;3.38;3.10;;;0.70;99.90;;;;;;5031389;28;20113;-55
2023/01/16 05:13:47;;;;;;;6.22;3.22;;;0.70;99.90;;;;;;5031241;28;20453;-56
2023/01/16 05:16:13;;;;;;;7.10;5.05;;;0.70;99.90;;;;;;5031459;28;20026;-57
2023/01/16 05:18:38;;;;;;;5.15;4.65;;;0.70;99.90;;;;;;5031160;28;20025;-58
2023/01/16 05:21:04;;;;;;;7.25;4.47;;;0.70;99.90;;;;;;5031382;28;20037;-56
2023/01/16 05:23:33;;;;;;;7.32;4.88;;;0.70;99.90;;;;;;5031168;28;20036;-56
2023/01/16 05:25:59;;;;;;;7.65;5.10;;;0.70;99.90;;;;;;5031291;28;20033;-55
2023/01/16 05:28:24;;;;;;;4.45;4.05;;;0.70;99.90;;;;;;5029955;28;20468;-57
2023/01/16 05:30:50;;;;;;;6.47;4.78;;;0.70;99.90;;;;;;5031002;28;20025;-57
2023/01/16 05:33:16;;;;;;;4.20;3.80;;;0.60;99.90;;;;;;5031179;28;20018;-55
2023/01/16 05:35:42;;;;;;;5.35;3.83;;;0.70;99.90;;;;;;5031041;28;20668;-54
2023/01/16 05:38:08;;;;;;;4.22;3.70;;;0.60;99.90;;;;;;5029801;28;20064;-55
2023/01/16 05:40:34;;;;;;;5.05;3.53;;;0.60;99.90;;;;;;5031045;28;20056;-53
2023/01/16 05:42:59;;;;;;;5.45;4.38;;;0.60;99.90;;;;;;5031133;28;20040;-56
2023/01/16 05:45:25;;;;;;;3.85;3.45;;;0.50;99.90;;;;;;5030936;28;20053;-56
2023/01/16 05:47:50;;;;;;;4.18;3.88;;;0.50;99.90;;;;;;5029627;28;20048;-57
2023/01/16 05:50:16;;;;;;;4.22;3.63;;;0.50;99.90;;;;;;5031074;28;20017;-57
2023/01/16 05:53:00;;;;;;;5.43;3.67;;;0.50;99.90;;;;;;5032290;28;20021;-58
2023/01/16 05:55:25;;;;;;;;;;;0.50;99.90;;;;;;5035080;28;20024;-57
2023/01/16 05:57:51;;;;;;;3.65;3.35;;;0.40;99.90;;;;;;5034459;28;20323;-56
2023/01/16 06:00:17;;;;;;;4.07;3.70;;;0.30;99.90;;;;;;5034671;28;20112;-58
2023/01/16 06:02:44;;;;;;;3.95;3.60;;;0.30;99.90;;;;;;5034472;28;20052;-57
2023/01/16 06:05:10;;;;;;;3.15;2.85;;;0.20;99.90;;;;;;5034494;28;20026;-54
2023/01/16 06:07:36;;;;;;;5.05;3.58;;;0.10;99.90;;;;;;5034364;28;20051;-55
2023/01/16 06:10:02;;;;;;;4.75;3.35;;;0.10;99.90;;;;;;5034235;28;20488;-58
2023/01/16 06:12:28;;;;;;;7.68;4.82;;;0.10;99.90;;;;;;5034327;28;20022;-59
2023/01/16 06:14:53;;;;;;;3.90;3.38;;;0.00;99.90;;;;;;5034020;28;20021;-54
2023/01/16 06:17:19;;;;;;;4.55;3.30;;;0.00;99.90;;;;;;5034076;28;20400;-59
2023/01/16 06:19:45;;;;;;;3.92;3.30;;;-0.10;99.90;;;;;;5033963;28;20029;-55
2023/01/16 06:22:14;;;;;;;15.05;5.15;;;-0.10;99.90;;;;;;5034130;28;20033;-57
2023/01/16 06:24:39;;;;;;;4.60;3.47;;;-0.10;99.90;;;;;;5033823;28;20465;-57
2023/01/16 06:27:05;;;;;;;3.85;3.20;;;-0.20;99.90;;;;;;5034027;28;20032;-58
2023/01/16 06:29:31;;;;;;;4.32;3.25;;;-0.20;99.90;;;;;;5033917;28;20108;-57
2023/01/16 06:31:56;;;;;;;3.45;3.20;;;-0.30;99.90;;;;;;5033858;28;20036;-56
2023/01/16 06:34:22;;;;;;;6.13;3.50;;;-0.20;99.90;;;;;;5033923;28;20021;-57
2023/01/16 06:36:49;;;;;;;5.07;4.13;;;-0.30;99.90;;;;;;5033762;28;20104;-54
2023/01/16 06:39:15;;;;;;;4.35;3.72;;;-0.30;99.90;;;;;;5033670;28;20029;-53
2023/01/16 06:41:41;;;;;;;3.63;3.33;;;-0.30;99.90;;;;;;5033654;28;20033;-54
2023/01/16 06:44:07;;;;;;;6.57;3.95;;;-0.20;99.90;;;;;;5033866;28;20036;-55
2023/01/16 06:46:32;;;;;;;6.95;4.20;;;-0.10;99.90;;;;;;5033505;28;20049;-56
2023/01/16 06:48:58;;;;;;;42.15;20.58;;;-0.10;99.90;;;;;;5033473;28;20038;-56
2023/01/16 06:51:24;;;;;;;11.77;9.30;;;-0.10;99.90;;;;;;5033694;28;20025;-58
2023/01/16 06:53:49;;;;;;;10.70;5.15;;;-0.10;99.90;;;;;;5033397;28;20028;-54
2023/01/16 06:56:16;;;;;;;5.78;4.55;;;-0.10;99.90;;;;;;5033576;28;20029;-55
2023/01/16 06:58:42;;;;;;;6.85;4.90;;;-0.10;99.90;;;;;;5033323;28;20079;-57
2023/01/16 07:01:08;;;;;;;5.10;4.03;;;-0.10;99.90;;;;;;5032152;28;20026;-58
2023/01/16 07:03:33;;;;;;;7.38;3.85;;;0.00;99.90;;;;;;5032508;28;20057;-56
2023/01/16 07:05:59;;;;;;;10.35;4.30;;;0.00;99.90;;;;;;5033067;28;20018;-57
2023/01/16 07:08:25;;;;;;;5.25;4.75;;;0.00;99.90;;;;;;5032813;28;20072;-57
2023/01/16 07:10:50;;;;;;;4.72;3.97;;;0.00;99.90;;;;;;5033231;28;20675;-55
2023/01/16 07:13:16;;;;;;;8.80;4.38;;;0.00;99.90;;;;;;5033905;28;20029;-58
2023/01/16 07:24:25;;;;;;;7.82;5.85;;;0.10;99.90;;;;;;4990953;28;20085;-58
2023/01/16 07:26:57;;;;;;;5.68;4.95;;;0.20;99.90;;;;;;5016846;28;20071;-57
2023/01/16 07:29:24;;;;;;;5.35;4.45;;;0.20;99.90;;;;;;5031675;28;20029;-59
2023/01/16 07:31:50;;;;;;;8.15;4.85;;;0.20;99.90;;;;;;5032524;28;20112;-56
2023/01/16 07:34:15;;;;;;;8.90;6.65;;;0.20;99.90;;;;;;5032467;28;20532;-53
2023/01/16 07:36:41;;;;;;;7.10;6.18;;;0.20;99.90;;;;;;5031838;28;20025;-55
2023/01/16 07:39:07;;;;;;;6.63;4.55;;;0.30;99.90;;;;;;5031964;28;20644;-54
2023/01/16 07:41:32;;;;;;;7.68;4.30;;;0.30;99.90;;;;;;5031940;28;20064;-58
2023/01/16 07:43:58;;;;;;;6.20;4.18;;;0.30;99.90;;;;;;5032389;28;20607;-56
2023/01/16 07:46:23;;;;;;;11.80;5.55;;;0.40;99.90;;;;;;5031681;28;20477;-52
2023/01/16 07:48:51;;;;;;;7.03;5.75;;;0.40;99.90;;;;;;5032115;28;20060;-55
2023/01/16 07:51:17;;;;;;;72.22;37.20;;;0.50;99.90;;;;;;5032242;28;20033;-57
2023/01/16 07:54:01;;;;;;;17.65;9.43;;;0.50;99.90;;;;;;5032211;28;20032;-57
2023/01/16 07:56:26;;;;;;;11.38;5.80;;;0.60;99.90;;;;;;5032338;28;20026;-56
2023/01/16 07:58:54;;;;;;;7.57;5.78;;;0.50;99.90;;;;;;5032247;28;20030;-58
2023/01/16 08:01:20;;;;;;;9.95;8.05;;;0.60;99.90;;;;;;5032263;28;20022;-58
2023/01/16 08:03:45;;;;;;;7.47;6.70;;;0.70;99.90;;;;;;5031969;28;20048;-56
2023/01/16 08:06:11;;;;;;;6.80;5.30;;;0.70;99.90;;;;;;5032061;28;20538;-57
2023/01/16 08:08:36;;;;;;;5.90;5.30;;;0.70;99.90;;;;;;5031900;28;20480;-58
2023/01/16 08:11:35;;;;;;;7.13;5.95;;;0.80;99.90;;;;;;5031906;28;20025;-58
2023/01/16 08:13:51;;;;;;;7.20;4.80;;;1.00;99.90;;;;;;5031666;28;20033;-60
2023/01/16 08:16:16;;;;;;;10.13;4.55;;;1.10;99.90;;;;;;5032004;28;20420;-58
2023/01/16 08:18:42;;;;;;;5.53;4.80;;;1.10;99.90;;;;;;5031783;28;20018;-62
2023/01/16 08:21:08;;;;;;;7.45;4.30;;;1.20;99.90;;;;;;5031833;28;20025;-58
2023/01/16 08:23:33;;;;;;;5.00;4.60;;;1.30;99.90;;;;;;5031567;28;20405;-58
2023/01/16 08:26:00;;;;;;;6.10;5.50;;;1.40;99.90;;;;;;5031814;28;20381;-57
2023/01/16 08:28:26;;;;;;;8.25;5.43;;;1.50;99.90;;;;;;5031723;28;20049;-58
2023/01/16 08:30:52;;;;;;;7.90;6.88;;;1.40;99.90;;;;;;5031556;28;20055;-59
2023/01/16 08:33:17;;;;;;;6.18;5.30;;;1.40;99.90;;;;;;5031534;28;20016;-60
2023/01/16 08:35:43;;;;;;;4.68;4.28;;;1.40;99.90;;;;;;5031267;28;20026;-54
2023/01/16 08:38:08;;;;;;;4.32;3.80;;;1.40;99.90;;;;;;5031627;28;20049;-53
2023/01/16 08:40:34;;;;;;;5.30;3.92;;;1.50;99.90;;;;;;5031506;28;20079;-56
2023/01/16 08:51:24;;;;;;;4.88;4.00;;;1.70;99.90;;;;;;5031445;28;20064;-53
2023/01/16 08:53:55;;;;;;;4.45;3.88;;;1.70;99.90;;;;;;5031316;28;20132;-56
2023/01/16 08:56:21;;;;;;;4.13;3.72;;;1.80;99.90;;;;;;5031631;28;20101;-54
2023/01/16 08:58:48;;;;;;;5.60;4.50;;;1.80;99.90;;;;;;5031397;28;20058;-55
2023/01/16 09:01:15;;;;;;;3.83;3.42;;;1.90;99.90;;;;;;5031469;28;20030;-54
2023/01/16 09:03:41;;;;;;;4.82;4.43;;;2.00;99.90;;;;;;5030994;28;20029;-57
2023/01/16 09:06:06;;;;;;;4.47;3.92;;;2.00;99.90;;;;;;5031572;28;20029;-55
2023/01/16 09:08:32;;;;;;;5.18;4.68;;;2.10;99.90;;;;;;5031210;28;20029;-57
2023/01/16 09:13:48;;;;;;;5.50;3.20;;;2.20;99.90;;;;;;5031566;28;20556;-55
2023/01/16 09:16:21;;;;;;;5.70;5.18;;;2.30;99.90;;;;;;5031433;28;20048;-56
2023/01/16 09:18:47;;;;;;;4.40;4.10;;;2.40;99.90;;;;;;5031151;28;20036;-54
2023/01/16 09:21:13;;;;;;;6.10;4.53;;;2.40;99.90;;;;;;5031348;28;20117;-56
2023/01/16 09:23:39;;;;;;;4.28;3.97;;;2.50;99.90;;;;;;5029860;28;20168;-53
2023/01/16 09:26:05;;;;;;;4.07;3.78;;;2.60;99.90;;;;;;5031171;28;20025;-58
2023/01/16 09:28:31;;;;;;;6.55;5.88;;;2.60;99.90;;;;;;5034253;28;20025;-56
2023/01/16 09:30:57;;;;;;;8.32;5.50;;;2.70;99.90;;;;;;5035120;28;20021;-58
2023/01/16 09:33:23;;;;;;;5.68;4.45;;;2.80;99.90;;;;;;5035020;28;20029;-58
2023/01/16 09:35:48;;;;;;;5.43;4.03;;;3.00;99.90;;;;;;5034472;28;20053;-57
2023/01/16 09:38:14;;;;;;;3.55;3.25;;;3.10;99.90;;;;;;5035327;28;20021;-57
2023/01/16 09:40:49;;;;;;;4.80;4.35;;;3.20;99.90;;;;;;5035007;28;20083;-57
2023/01/16 09:43:39;;;;;;;4.78;2.78;;;3.60;99.90;;;;;;5034766;28;20217;-56
2023/01/16 09:46:11;;;;;;;6.65;2.47;;;4.70;99.90;;;;;;5034377;28;20389;-55
2023/01/16 09:48:44;;;;;;;2.85;2.53;;;6.40;99.90;;;;;;5034324;28;20030;-58
2023/01/16 09:58:34;;;;;;;6.05;2.85;;;7.60;99.90;;;;;;5034744;28;20010;-58
2023/01/16 10:00:08;;;;;;;2.63;1.90;;;10.40;94.00;;;;;;5034432;28;20063;-56
2023/01/16 10:02:35;;;;;;;3.88;1.95;;;11.90;88.70;;;;;;5033843;28;20108;-57
2023/01/16 10:05:04;;;;;;;2.47;2.00;;;11.50;87.30;;;;;;5032144;28;20132;-54
2023/01/16 10:07:38;;;;;;;2.60;2.20;;;11.60;84.50;;;;;;5033195;28;20049;-56
2023/01/16 10:10:26;;;;;;;2.47;2.10;;;12.30;82.10;;;;;;5032948;28;20560;-56
2023/01/16 10:13:19;;;;;;;1.88;1.67;;;12.80;80.90;;;;;;5031833;28;20025;-60
2023/01/16 10:15:50;;;;;;;2.35;1.98;;;13.40;76.90;;;;;;5033427;28;20030;-58
2023/01/16 10:18:42;;;;;;;2.47;1.75;;;13.80;74.20;;;;;;5031840;28;20104;-57
2023/01/16 10:21:26;;;;;;;1.45;1.30;;;14.50;72.10;;;;;;5046544;28;20022;-54
2023/01/16 10:24:11;;;;;;;2.63;1.63;;;15.50;69.70;;;;;;5033419;28;20052;-54
2023/01/16 10:27:04;;;;;;;5.20;1.40;;;15.10;66.40;;;;;;5033605;28;20017;-55
2023/01/16 10:29:34;;;;;;;1.33;1.23;;;15.30;65.00;;;;;;5032592;28;20151;-58
2023/01/16 10:32:15;;;;;;;1.60;1.30;;;15.50;63.90;;;;;;5034034;28;20033;-56
2023/01/16 10:35:03;;;;;;;1.42;1.15;;;15.90;61.20;;;;;;5033577;28;20449;-57
2023/01/16 10:37:29;;;;;;;3.50;1.30;;;15.00;63.70;;;;;;5033560;28;20075;-53
2023/01/16 10:39:58;;;;;;;4.43;1.20;;;15.10;62.60;;;;;;5032093;28;20034;-56
2023/01/16 10:50:47;;;;;;;1.90;1.20;;;14.50;60.00;;;;;;5033452;28;20031;-57
2023/01/16 10:53:14;;;;;;;1.10;1.00;;;14.50;61.10;;;;;;5033724;28;20049;-55
2023/01/16 10:55:44;;;;;;;2.13;1.10;;;16.40;59.70;;;;;;5032774;28;20052;-56
2023/01/16 10:58:29;;;;;;;3.55;1.33;;;16.10;59.20;;;;;;5033377;28;20028;-52
2023/01/16 11:01:10;;;;;;;1.83;1.23;;;15.90;55.60;;;;;;5031921;28;20028;-57
2023/01/16 11:03:47;;;;;;;1.30;1.20;;;14.30;58.70;;;;;;5033380;28;20018;-54
2023/01/16 11:06:27;;;;;;;1.60;0.90;;;15.10;58.70;;;;;;5032352;28;20030;-56
2023/01/16 11:08:59;;;;;;;1.40;0.93;;;15.50;58.00;;;;;;5031478;28;20038;-57
2023/01/16 11:20:21;;;;;;;1.35;0.80;;;16.60;55.90;;;;;;5032606;28;20087;-55
2023/01/16 11:22:58;;;;;;;5.30;2.72;;;16.30;55.30;;;;;;5032484;28;20029;-56
2023/01/16 11:25:25;;;;;;;0.50;0.50;;;17.00;55.40;;;;;;5032938;28;20037;-58
2023/01/16 11:27:51;;;;;;;1.05;0.68;;;18.20;52.20;;;;;;5032861;28;20511;-58
2023/01/16 11:30:21;;;;;;;4.18;0.82;;;17.40;53.10;;;;;;5032201;28;20033;-57
2023/01/16 11:32:48;;;;;;;0.43;0.43;;;18.00;53.40;;;;;;5032602;28;20022;-58
2023/01/16 11:35:16;;;;;;;1.35;1.20;;;17.40;50.30;;;;;;5033218;28;20038;-59
2023/01/16 11:37:45;;;;;;;1.90;0.90;;;16.90;51.70;;;;;;5032553;28;20017;-58
2023/01/16 11:40:22;;;;;;;3.65;0.70;;;16.30;52.50;;;;;;5032195;28;20052;-58
2023/01/16 11:46:04;;;;;;;0.63;0.63;;;16.40;51.40;;;;;;5031069;28;20416;-57
2023/01/16 11:48:42;;;;;;;1.10;0.73;;;17.30;50.50;;;;;;5032003;28;20034;-58
2023/01/16 11:51:21;;;;;;;0.80;0.80;;;17.50;52.00;;;;;;5031735;28;20104;-58
2023/01/16 11:53:48;;;;;;;0.90;0.70;;;18.20;50.10;;;;;;5032118;28;20032;-58
2023/01/16 11:56:15;;;;;;;1.05;0.40;;;18.40;48.10;;;;;;5032196;28;20389;-58
2023/01/16 11:59:06;;;;;;;2.17;0.65;;;18.60;46.90;;;;;;5032106;28;20033;-58
2023/01/16 12:04:29;;;;;;;3.33;0.70;;;18.90;49.30;;;;;;5031884;28;20409;-58
2023/01/16 12:07:14;;;;;;;0.32;0.32;;;18.50;48.70;;;;;;5031932;28;20108;-58
2023/01/16 12:09:46;;;;;;;0.40;0.40;;;18.50;45.50;;;;;;5031598;28;20404;-58
2023/01/16 12:15:22;;;;;;;;;;;19.00;46.40;;;;;;5030214;28;20036;-58
2023/01/16 12:18:06;;;;;;;3.60;0.45;;;20.10;43.20;;;;;;5031551;28;19909;-58
2023/01/16 12:20:59;;;;;;;3.85;0.45;;;20.20;43.70;;;;;;5031337;28;20029;-58
2023/01/16 12:23:51;;;;;;;0.73;0.50;;;19.00;42.70;;;;;;5031555;28;20037;-58
2023/01/16 12:26:24;;;;;;;1.65;0.40;;;19.00;43.10;;;;;;5031460;28;20112;-58
2023/01/16 12:29:21;;;;;;;8.48;0.60;;;19.60;43.70;;;;;;5031293;28;20048;-59
2023/01/16 12:32:12;;;;;;;8.38;0.60;;;18.80;42.40;;;;;;5031936;28;20488;-58
2023/01/16 12:34:59;;;;;;;3.88;0.43;;;17.10;44.20;;;;;;5009924;28;20037;-57
2023/01/16 12:37:34;;;;;;;1.13;0.40;;;17.60;44.50;;;;;;5032050;28;20026;-58
2023/01/16 12:40:23;;;;;;;1.65;0.52;;;17.20;44.10;;;;;;5031437;28;20581;-58
2023/01/16 12:43:39;;;;;;;4.25;0.50;;;17.70;44.20;;;;;;5024739;28;20056;-59
2023/01/16 12:46:15;;;;;;;3.50;0.40;;;18.30;44.00;;;;;;4989275;28;20054;-58
2023/01/16 12:48:46;;;;;;;1.85;0.40;;;19.10;41.40;;;;;;5029309;28;20034;-58
2023/01/16 12:51:27;;;;;;;6.22;0.63;;;18.90;43.00;;;;;;5031502;28;20025;-58
2023/01/16 12:54:13;;;;;;;2.17;0.50;;;18.70;43.50;;;;;;5030732;28;20052;-58
2023/01/16 12:56:59;;;;;;;6.00;0.70;;;19.60;41.80;;;;;;5030944;28;20022;-59
2023/01/16 12:59:35;;;;;;;5.88;0.47;;;19.90;42.90;;;;;;5031331;28;20457;-59
2023/01/16 13:02:34;;;;;;;2.75;0.40;;;19.50;41.60;;;;;;5031935;28;20025;-58
2023/01/16 13:05:17;;;;;;;7.03;0.77;;;18.90;41.90;;;;;;5035416;28;20021;-58
2023/01/16 13:08:17;;;;;;;63.10;42.17;;;18.50;41.50;;;;;;5035236;28;20496;-58
2023/01/16 13:13:37;;;;;;;3.65;0.77;;;17.70;42.30;;;;;;5034004;28;20512;-58
2023/01/16 13:16:07;;;;;;;6.22;0.40;;;18.10;43.70;;;;;;5034930;28;20037;-58
2023/01/16 13:18:42;;;;;;;3.00;0.40;;;19.10;42.30;;;;;;5034753;28;20018;-58
2023/01/16 13:21:17;;;;;;;1.90;0.60;;;19.20;42.10;;;;;;5034935;28;20152;-59
2023/01/16 13:23:50;;;;;;;2.35;0.40;;;19.80;42.60;;;;;;5034526;28;20377;-58
2023/01/16 13:26:18;;;;;;;0.30;0.30;;;19.30;42.90;;;;;;5034405;28;20025;-58
2023/01/16 13:29:03;;;;;;;1.48;0.35;;;19.10;43.00;;;;;;5034756;28;20040;-58
2023/01/16 13:32:01;;;;;;;1.30;0.50;;;19.00;43.50;;;;;;5034564;28;20056;-58
2023/01/16 13:34:34;;;;;;;3.17;0.32;;;18.80;44.00;;;;;;5027001;28;20125;-58
2023/01/16 13:37:12;;;;;;;1.33;0.50;;;19.50;43.70;;;;;;5034903;28;20017;-58
2023/01/16 13:39:55;;;;;;;1.67;0.68;;;18.90;43.00;;;;;;5033555;28;20041;-58
2023/01/16 13:42:23;;;;;;;3.25;0.35;;;19.00;44.30;;;;;;5034814;28;20032;-59
2023/01/16 13:47:41;;;;;;;0.57;0.50;;;19.40;43.50;;;;;;5034110;28;20641;-56
2023/01/16 13:50:07;;;;;;;0.52;0.50;;;19.30;43.60;;;;;;5034604;28;20026;-58
2023/01/16 13:52:34;;;;;;;2.97;0.38;;;18.40;44.60;;;;;;5034489;28;20025;-58
2023/01/16 13:55:06;;;;;;;4.22;0.60;;;18.00;45.30;;;;;;5034625;28;20024;-58
2023/01/16 13:57:33;;;;;;;1.67;0.50;;;18.00;46.00;;;;;;5034564;28;20362;-58
2023/01/16 14:00:11;;;;;;;0.68;0.50;;;17.80;45.30;;;;;;5034422;28;20080;-58
2023/01/16 14:02:36;;;;;;;0.50;0.50;;;18.00;45.50;;;;;;5034281;28;20022;-58
2023/01/16 14:05:14;;;;;;;0.98;0.70;;;17.50;46.70;;;;;;5034145;28;20026;-58
2023/01/16 14:10:44;;;;;;;5.30;0.77;;;15.00;50.50;;;;;;5034133;28;20040;-58
2023/01/16 14:13:27;;;;;;;1.98;1.13;;;14.00;52.50;;;;;;5033873;28;20024;-57
2023/01/16 14:19:13;;;;;;;1.92;1.27;;;12.20;57.50;;;;;;5033762;28;20040;-58
2023/01/16 14:24:00;;;;;;;2.47;1.30;;;11.30;60.20;;;;;;5033422;28;20409;-58
2023/01/16 14:24:26;;;;;;;3.83;1.70;;;10.60;61.90;;;;;;5033568;28;20128;-58